Time;durP1;ratioP1;P1;durP2;ratioP2;P2;SDS_P1;SDS_P2;PMS_P1;PMS_P2;Temp;Humidity;BMP_temperature;BMP_pressure;BME280_temperature;BME280_humidity;BME280_pressure;Samples;Min_cycle;Max_cycle;Signal;HPM_P1;HPM_P2
2021/10/24 00:01:54;;;;;;;33.33;17.63;;;;;;;12.77;100.00;102594.44;5096456;28;20036;-58
2021/10/24 00:04:20;;;;;;;44.97;19.97;;;;;;;12.74;100.00;102595.63;5095447;28;20101;-55
2021/10/24 00:06:45;;;;;;;37.17;18.73;;;;;;;12.78;100.00;102588.03;5096818;28;20412;-55
2021/10/24 00:09:11;;;;;;;33.20;17.60;;;;;;;12.88;100.00;102596.78;5095514;28;20032;-57
2021/10/24 00:11:37;;;;;;;40.10;17.90;;;;;;;12.95;100.00;102590.75;5096766;28;20465;-55
2021/10/24 00:14:05;;;;;;;34.90;17.25;;;;;;;12.95;100.00;102591.59;5096476;28;20283;-57
2021/10/24 00:16:31;;;;;;;36.47;17.50;;;;;;;12.90;100.00;102593.91;5096153;28;20032;-59
2021/10/24 00:18:57;;;;;;;40.47;17.45;;;;;;;12.87;100.00;102588.88;5095977;28;20028;-58
2021/10/24 00:21:22;;;;;;;34.00;18.07;;;;;;;12.84;100.00;102597.28;5079049;28;20043;-58
2021/10/24 00:23:48;;;;;;;37.57;17.57;;;;;;;12.63;100.00;102595.94;5096144;28;20530;-58
2021/10/24 00:26:13;;;;;;;41.43;18.33;;;;;;;12.70;100.00;102591.59;5096081;28;20493;-58
2021/10/24 00:28:39;;;;;;;37.37;20.00;;;;;;;12.60;100.00;102582.84;5096295;28;20028;-55
2021/10/24 00:31:04;;;;;;;38.10;18.63;;;;;;;12.42;100.00;102581.13;5095746;28;20070;-58
2021/10/24 00:33:30;;;;;;;41.70;19.17;;;;;;;12.58;100.00;102588.41;5094658;28;20281;-58
2021/10/24 00:35:55;;;;;;;39.83;18.33;;;;;;;12.59;100.00;102581.16;5094787;28;20058;-58
2021/10/24 00:38:21;;;;;;;30.35;17.23;;;;;;;12.53;100.00;102590.72;5094777;28;20572;-59
2021/10/24 00:40:47;;;;;;;31.47;17.00;;;;;;;12.44;100.00;102586.34;5094894;28;20479;-58
2021/10/24 00:43:13;;;;;;;41.70;18.00;;;;;;;12.61;100.00;102587.19;5095352;28;20064;-58
2021/10/24 00:45:38;;;;;;;43.72;18.45;;;;;;;12.34;100.00;102581.13;5094781;28;20109;-59
2021/10/24 00:48:04;;;;;;;38.60;18.77;;;;;;;12.12;100.00;102579.91;5096528;28;20039;-59
2021/10/24 00:50:30;;;;;;;42.67;20.10;;;;;;;12.03;100.00;102581.72;5095844;28;20039;-59
2021/10/24 00:52:59;;;;;;;40.35;19.40;;;;;;;12.03;100.00;102576.34;5077481;28;20035;-59
2021/10/24 00:55:24;;;;;;;42.17;19.48;;;;;;;12.01;100.00;102584.56;5077458;28;20036;-60
2021/10/24 00:57:51;;;;;;;39.05;18.08;;;;;;;11.96;100.00;102577.97;5077391;28;20032;-59
2021/10/24 01:00:18;;;;;;;39.90;19.42;;;;;;;11.93;100.00;102572.91;5094384;28;20027;-59
2021/10/24 01:02:45;;;;;;;37.42;20.40;;;;;;;11.87;100.00;102577.06;5094821;28;20035;-59
2021/10/24 01:05:12;;;;;;;40.80;19.10;;;;;;;11.94;100.00;102569.25;5077690;28;20047;-59
2021/10/24 01:07:39;;;;;;;40.67;20.02;;;;;;;11.96;100.00;102572.59;5094594;28;20027;-59
2021/10/24 01:10:07;;;;;;;42.55;19.38;;;;;;;11.94;100.00;102570.09;5094199;28;20051;-59
2021/10/24 01:12:36;;;;;;;54.15;20.80;;;;;;;12.07;100.00;102569.66;5094307;28;20050;-59
2021/10/24 01:15:03;;;;;;;39.53;19.63;;;;;;;12.26;100.00;102570.38;5094378;28;20356;-59
2021/10/24 01:17:31;;;;;;;37.25;19.83;;;;;;;11.90;100.00;102564.19;5095359;28;20044;-59
2021/10/24 01:19:57;;;;;;;39.42;19.88;;;;;;;12.09;100.00;102570.34;5095422;28;20036;-59
2021/10/24 01:22:23;;;;;;;40.50;19.17;;;;;;;12.21;100.00;102570.00;5094427;28;20032;-59
2021/10/24 01:24:49;;;;;;;44.45;20.67;;;;;;;12.31;100.00;102568.88;5093812;28;20165;-59
2021/10/24 01:27:15;;;;;;;39.07;19.00;;;;;;;12.30;100.00;102569.88;5094254;28;20127;-59
2021/10/24 01:29:40;;;;;;;39.47;19.50;;;;;;;12.21;100.00;102567.34;5093934;28;20044;-59
2021/10/24 01:32:06;;;;;;;41.88;21.05;;;;;;;11.86;100.00;102565.53;5093444;28;20043;-59
2021/10/24 01:34:44;;;;;;;42.80;20.23;;;;;;;11.97;100.00;102558.19;5093545;28;20039;-62
2021/10/24 01:37:10;;;;;;;39.03;19.00;;;;;;;12.08;100.00;102559.75;5094117;28;20420;-59
2021/10/24 01:39:36;;;;;;;44.03;19.80;;;;;;;11.87;100.00;102564.53;5093914;28;20032;-57
2021/10/24 01:42:01;;;;;;;41.88;19.95;;;;;;;11.85;100.00;102550.44;5094449;28;20447;-60
2021/10/24 01:44:27;;;;;;;39.17;20.23;;;;;;;12.14;100.00;102545.72;5093967;28;20477;-59
2021/10/24 01:46:53;;;;;;;46.22;22.95;;;;;;;11.77;100.00;102547.75;5093625;28;20054;-58
2021/10/24 01:49:20;;;;;;;;;;;;;;;11.70;100.00;102542.19;5095177;28;20445;-58
2021/10/24 01:51:45;;;;;;;45.07;20.47;;;;;;;11.77;100.00;102542.38;5093512;28;19920;-59
2021/10/24 01:54:11;;;;;;;44.30;21.25;;;;;;;11.77;100.00;102545.06;5095301;28;20463;-58
2021/10/24 01:56:36;;;;;;;40.33;20.50;;;;;;;11.75;100.00;102536.31;5095295;28;20044;-58
2021/10/24 01:59:02;;;;;;;40.90;21.23;;;;;;;11.68;100.00;102533.47;5093913;28;20364;-58
2021/10/24 02:01:47;;;;;;;41.53;21.13;;;;;;;11.82;100.00;102536.53;5094332;28;20272;-59
2021/10/24 02:04:32;;;;;;;43.97;20.95;;;;;;;12.02;100.00;102529.09;5094049;28;20135;-60
2021/10/24 02:07:21;;;;;;;41.70;21.05;;;;;;;11.95;100.00;102531.56;5093336;28;20040;-58
2021/10/24 02:09:47;;;;;;;40.07;21.77;;;;;;;11.75;100.00;102530.97;5095077;28;20100;-58
2021/10/24 02:12:12;;;;;;;43.78;21.33;;;;;;;11.70;100.00;102523.44;5093732;28;20031;-59
2021/10/24 02:14:38;;;;;;;36.97;19.98;;;;;;;11.59;100.00;102521.88;5093952;28;20472;-57
2021/10/24 02:17:04;;;;;;;46.10;20.57;;;;;;;11.89;100.00;102516.94;5092941;28;20377;-58
2021/10/24 02:19:29;;;;;;;28.83;15.30;;;;;;;12.04;100.00;102513.69;5092864;28;20504;-58
2021/10/24 02:21:56;;;;;;;41.20;19.73;;;;;;;12.00;100.00;102517.66;5059810;28;20346;-58
2021/10/24 02:24:21;;;;;;;46.95;22.13;;;;;;;12.03;100.00;102515.50;5075913;28;20098;-60
2021/10/24 02:26:47;;;;;;;38.47;19.20;;;;;;;12.07;100.00;102507.13;5059704;28;20027;-59
2021/10/24 02:29:12;;;;;;;43.83;20.23;;;;;;;11.83;100.00;102511.41;5076264;28;20288;-59
2021/10/24 02:31:38;;;;;;;42.00;19.67;;;;;;;11.74;100.00;102503.34;5093450;28;20081;-57
2021/10/24 02:34:17;;;;;;;43.17;19.73;;;;;;;12.03;100.00;102499.41;5077427;28;20477;-58
2021/10/24 02:37:03;;;;;;;38.75;20.73;;;;;;;11.97;100.00;102501.88;5093653;28;20084;-59
2021/10/24 02:39:29;;;;;;;40.00;20.52;;;;;;;11.98;100.00;102490.16;5092747;28;20089;-57
2021/10/24 02:41:54;;;;;;;42.60;20.47;;;;;;;11.84;100.00;102497.84;5075687;28;20056;-58
2021/10/24 02:44:22;;;;;;;34.08;18.85;;;;;;;11.92;100.00;102483.63;5059945;28;20028;-58
2021/10/24 02:46:53;;;;;;;38.75;20.77;;;;;;;11.87;100.00;102486.78;5092619;28;20076;-58
2021/10/24 02:49:19;;;;;;;38.63;20.15;;;;;;;11.91;100.00;102481.94;5092782;28;20036;-60
2021/10/24 02:51:49;;;;;;;35.30;18.60;;;;;;;11.97;100.00;102477.75;5076737;28;20252;-60
2021/10/24 02:54:15;;;;;;;36.55;18.48;;;;;;;11.97;100.00;102477.75;5092665;28;20111;-58
2021/10/24 02:56:41;;;;;;;36.05;19.25;;;;;;;11.88;100.00;102471.56;5092478;28;20065;-58
2021/10/24 02:59:06;;;;;;;37.57;18.00;;;;;;;11.81;100.00;102478.56;5092366;28;20040;-58
2021/10/24 03:01:32;;;;;;;37.17;19.37;;;;;;;11.75;100.00;102475.53;5092794;28;20744;-58
2021/10/24 03:03:57;;;;;;;33.43;15.60;;;;;;;11.79;100.00;102476.06;5092576;28;20272;-56
2021/10/24 03:06:23;;;;;;;40.10;19.23;;;;;;;11.74;100.00;102470.31;5092681;28;20035;-59
2021/10/24 03:08:53;;;;;;;35.20;19.33;;;;;;;11.81;100.00;102463.31;5076194;28;20040;-56
2021/10/24 03:11:19;;;;;;;36.65;19.02;;;;;;;11.77;100.00;102460.13;5093095;28;20051;-58
2021/10/24 03:13:44;;;;;;;40.70;18.63;;;;;;;11.81;100.00;102462.47;5092169;28;20036;-59
2021/10/24 03:16:10;;;;;;;39.20;20.60;;;;;;;11.58;100.00;102460.38;5075938;28;20043;-59
2021/10/24 03:18:35;;;;;;;35.53;18.43;;;;;;;11.72;100.00;102469.66;5093199;28;20093;-58
2021/10/24 03:21:01;;;;;;;33.23;19.60;;;;;;;11.68;100.00;102468.31;5058437;28;20082;-58
2021/10/24 03:23:27;;;;;;;32.92;18.95;;;;;;;11.59;100.00;102464.75;5092275;28;20249;-57
2021/10/24 03:25:56;;;;;;;37.42;19.65;;;;;;;11.72;100.00;102456.25;5092132;28;20039;-61
2021/10/24 03:28:21;;;;;;;39.43;19.27;;;;;;;11.69;100.00;102459.25;5092357;28;20063;-61
2021/10/24 03:30:47;;;;;;;37.67;19.80;;;;;;;11.72;100.00;102464.28;5093330;28;20298;-59
2021/10/24 03:33:12;;;;;;;42.97;19.10;;;;;;;11.72;100.00;102470.50;5091703;28;20043;-57
2021/10/24 03:35:38;;;;;;;39.22;19.33;;;;;;;11.67;100.00;102466.63;5092216;28;20084;-59
2021/10/24 03:38:04;;;;;;;37.90;19.95;;;;;;;11.57;100.00;102462.25;5092860;28;20062;-59
2021/10/24 03:40:30;;;;;;;;;;;;;;;11.57;100.00;102467.59;5093138;28;20036;-58
2021/10/24 03:42:56;;;;;;;39.23;20.77;;;;;;;11.36;100.00;102465.34;5093104;28;19916;-58
2021/10/24 03:45:21;;;;;;;36.08;19.77;;;;;;;11.50;100.00;102461.19;5092381;28;20074;-56
2021/10/24 03:47:47;;;;;;;41.10;19.77;;;;;;;11.37;100.00;102463.50;5092437;28;20157;-58
2021/10/24 03:50:13;;;;;;;40.22;19.90;;;;;;;11.51;100.00;102465.56;5091800;28;20465;-57
2021/10/24 03:52:40;;;;;;;41.67;19.02;;;;;;;11.64;100.00;102465.09;5075444;28;20047;-59
2021/10/24 03:55:11;;;;;;;38.27;19.33;;;;;;;11.61;100.00;102460.06;5075039;28;20028;-58
2021/10/24 03:57:38;;;;;;;40.55;18.92;;;;;;;11.68;100.00;102460.25;5092604;28;20450;-59
2021/10/24 04:00:05;;;;;;;38.17;18.98;;;;;;;11.60;100.00;102456.56;5074990;28;20432;-59
2021/10/24 04:02:50;;;;;;;;;;;;;;;11.41;100.00;102464.84;5093191;28;20036;-58
2021/10/24 04:05:16;;;;;;;34.47;18.40;;;;;;;11.37;100.00;102458.16;5092129;28;19908;-58
2021/10/24 04:07:41;;;;;;;32.00;16.83;;;;;;;11.51;100.00;102452.16;5075359;28;20121;-58
2021/10/24 04:10:07;;;;;;;41.63;18.90;;;;;;;11.53;100.00;102450.16;5093033;28;20504;-58
2021/10/24 04:12:33;;;;;;;35.33;18.48;;;;;;;11.36;100.00;102451.94;5091786;28;20073;-59
2021/10/24 04:14:58;;;;;;;33.15;18.23;;;;;;;11.51;100.00;102454.00;5091843;28;20539;-58
2021/10/24 04:17:24;;;;;;;32.33;18.60;;;;;;;11.33;100.00;102455.78;5091925;28;20036;-56
2021/10/24 04:19:50;;;;;;;34.40;19.27;;;;;;;11.19;100.00;102451.03;5092009;28;20149;-56
2021/10/24 04:22:15;;;;;;;34.10;18.60;;;;;;;11.29;100.00;102449.06;5091628;28;20173;-57
2021/10/24 04:24:41;;;;;;;40.08;18.73;;;;;;;10.95;100.00;102454.41;5074908;28;20040;-56
2021/10/24 04:27:07;;;;;;;41.93;19.23;;;;;;;11.05;100.00;102445.25;5092661;28;20101;-57
2021/10/24 04:29:32;;;;;;;39.97;19.07;;;;;;;11.34;100.00;102448.59;5096203;28;20048;-57
2021/10/24 04:31:58;;;;;;;38.43;18.87;;;;;;;10.99;100.00;102445.09;5094808;28;20111;-57
2021/10/24 04:34:25;;;;;;;36.75;16.85;;;;;;;11.16;100.00;102452.19;5078172;28;20119;-58
2021/10/24 04:36:51;;;;;;;37.10;17.73;;;;;;;11.24;100.00;102451.38;5077874;28;20118;-58
2021/10/24 04:39:16;;;;;;;35.37;17.70;;;;;;;11.23;100.00;102447.03;5094799;28;20081;-58
2021/10/24 04:41:42;;;;;;;41.25;19.02;;;;;;;11.26;100.00;102446.69;5095394;28;20031;-58
2021/10/24 04:44:09;;;;;;;34.72;17.45;;;;;;;11.27;100.00;102444.88;5078316;28;20055;-58
2021/10/24 04:46:34;;;;;;;33.53;17.38;;;;;;;11.11;100.00;102448.31;5095360;28;20357;-58
2021/10/24 04:49:00;;;;;;;36.97;17.73;;;;;;;11.17;100.00;102445.81;5094527;28;20047;-57
2021/10/24 04:51:26;;;;;;;30.77;16.53;;;;;;;10.89;100.00;102439.84;5094972;28;20035;-59
2021/10/24 04:53:52;;;;;;;31.83;17.25;;;;;;;11.20;100.00;102439.31;5095570;28;20032;-59
2021/10/24 04:56:18;;;;;;;32.50;17.42;;;;;;;11.14;100.00;102445.31;5094342;28;20090;-56
2021/10/24 04:58:43;;;;;;;35.73;17.80;;;;;;;11.17;100.00;102436.97;5096049;28;20071;-58
2021/10/24 05:01:09;;;;;;;29.05;16.77;;;;;;;11.14;100.00;102439.97;5077730;28;20276;-60
2021/10/24 05:03:35;;;;;;;29.77;17.05;;;;;;;11.30;100.00;102426.66;5094279;28;20089;-58
2021/10/24 05:06:02;;;;;;;28.77;16.15;;;;;;;11.36;100.00;102435.03;5096038;28;20051;-58
2021/10/24 05:08:30;;;;;;;30.38;17.15;;;;;;;11.40;100.00;102426.50;5095108;28;20020;-57
2021/10/24 05:10:56;;;;;;;29.40;16.60;;;;;;;11.22;100.00;102429.28;5095142;28;20067;-57
2021/10/24 05:13:21;;;;;;;30.97;17.20;;;;;;;11.33;100.00;102426.34;5095094;28;20290;-58
2021/10/24 05:15:47;;;;;;;34.17;16.95;;;;;;;11.21;100.00;102427.59;5094211;28;20268;-57
2021/10/24 05:18:13;;;;;;;29.25;15.77;;;;;;;11.27;100.00;102421.59;5077316;28;20039;-59
2021/10/24 05:20:39;;;;;;;28.73;15.80;;;;;;;11.23;100.00;102417.56;5094256;28;20040;-56
2021/10/24 05:23:08;;;;;;;31.48;17.85;;;;;;;11.26;100.00;102417.25;5094252;28;20110;-57
2021/10/24 05:25:39;;;;;;;30.92;15.20;;;;;;;10.98;100.00;102406.75;5062679;28;20511;-58
2021/10/24 05:28:06;;;;;;;36.28;16.63;;;;;;;10.91;100.00;102411.06;5094639;28;20433;-60
2021/10/24 05:30:32;;;;;;;35.03;14.95;;;;;;;10.96;100.00;102410.59;5093830;28;20066;-59
2021/10/24 05:32:58;;;;;;;28.85;15.02;;;;;;;11.22;100.00;102412.41;5094407;28;20529;-59
2021/10/24 05:35:26;;;;;;;30.60;14.23;;;;;;;11.19;100.00;102413.53;5077016;28;20120;-61
2021/10/24 05:37:51;;;;;;;28.95;14.95;;;;;;;11.19;100.00;102416.22;5094377;28;20265;-54
2021/10/24 05:40:18;;;;;;;32.75;16.17;;;;;;;11.11;100.00;102414.34;5060615;28;20098;-57
2021/10/24 05:42:49;;;;;;;25.70;14.90;;;;;;;11.16;100.00;102411.19;5093918;28;20117;-59
2021/10/24 05:45:15;;;;;;;28.05;14.45;;;;;;;11.04;100.00;102403.41;5093734;28;20457;-59
2021/10/24 05:47:41;;;;;;;28.33;15.27;;;;;;;11.10;100.00;102401.13;5095016;28;20048;-59
2021/10/24 05:50:15;;;;;;;31.02;16.05;;;;;;;11.10;100.00;102403.81;5094145;28;20039;-57
2021/10/24 05:52:41;;;;;;;30.50;14.60;;;;;;;11.09;100.00;102400.28;5094305;28;20032;-59
2021/10/24 05:55:07;;;;;;;30.55;14.80;;;;;;;11.24;100.00;102395.16;5093522;28;20078;-57
2021/10/24 05:57:32;;;;;;;30.63;13.93;;;;;;;11.16;100.00;102398.63;5093436;28;20075;-59
2021/10/24 06:00:16;;;;;;;28.25;14.90;;;;;;;11.06;100.00;102395.25;5094889;28;20028;-58
2021/10/24 06:02:44;;;;;;;40.97;16.77;;;;;;;11.07;100.00;102377.31;5076904;28;20483;-55
2021/10/24 06:05:29;;;;;;;30.85;15.13;;;;;;;11.13;100.00;102382.06;5093445;28;20031;-59
2021/10/24 06:07:55;;;;;;;29.13;15.73;;;;;;;11.12;100.00;102373.19;5092597;28;20397;-57
2021/10/24 06:10:22;;;;;;;29.50;14.40;;;;;;;11.00;100.00;102372.63;5092374;28;20040;-58
2021/10/24 06:12:51;;;;;;;29.92;14.45;;;;;;;10.94;100.00;102378.63;5093468;28;20092;-58
2021/10/24 06:15:19;;;;;;;30.33;14.68;;;;;;;11.02;100.00;102375.97;5092638;28;20031;-58
2021/10/24 06:17:46;;;;;;;30.27;15.75;;;;;;;11.00;100.00;102372.63;5092467;28;20028;-55
2021/10/24 06:20:14;;;;;;;25.15;13.63;;;;;;;11.05;100.00;102364.94;5092787;28;20060;-57
2021/10/24 06:22:43;;;;;;;24.55;13.07;;;;;;;11.05;100.00;102364.13;5076044;28;20032;-57
2021/10/24 06:25:10;;;;;;;;;;;;;;;11.04;100.00;102363.25;5076853;28;20040;-59
2021/10/24 06:27:38;;;;;;;27.10;14.80;;;;;;;10.88;100.00;102352.50;5092951;28;20235;-59
2021/10/24 06:30:09;;;;;;;24.33;14.05;;;;;;;10.61;100.00;102357.06;5076070;28;20032;-58
2021/10/24 06:32:53;;;;;;;34.92;15.75;;;;;;;10.72;100.00;102356.78;5094448;28;20043;-56
2021/10/24 06:35:37;;;;;;;26.60;13.80;;;;;;;10.79;100.00;102356.13;5093321;28;20076;-59
2021/10/24 06:38:20;;;;;;;23.90;12.88;;;;;;;10.70;100.00;102350.75;5093068;28;20054;-58
2021/10/24 06:40:49;;;;;;;28.85;13.57;;;;;;;10.81;100.00;102346.94;5092587;28;20069;-56
2021/10/24 06:43:15;;;;;;;;;;;;;;;10.60;100.00;102341.97;5092572;28;20496;-59
2021/10/24 06:45:59;;;;;;;24.30;12.57;;;;;;;10.59;100.00;102342.97;5094183;28;19923;-58
2021/10/24 06:48:43;;;;;;;31.02;13.95;;;;;;;10.59;100.00;102345.66;5093924;28;20097;-58
2021/10/24 06:51:19;;;;;;;26.85;13.93;;;;;;;10.43;100.00;102341.91;5077268;28;20035;-57
2021/10/24 06:54:03;;;;;;;36.35;13.90;;;;;;;10.32;100.00;102336.75;5093253;28;20054;-59
2021/10/24 06:56:48;;;;;;;25.40;12.80;;;;;;;10.34;100.00;102350.81;5094017;28;20054;-58
2021/10/24 06:59:32;;;;;;;30.38;14.48;;;;;;;10.28;100.00;102346.94;5078628;28;20044;-58
2021/10/24 07:02:19;;;;;;;29.60;12.68;;;;;;;10.20;100.00;102354.88;5093020;28;20077;-59
2021/10/24 07:05:18;;;;;;;24.42;12.65;;;;;;;10.08;100.00;102337.44;5059558;28;20047;-56
2021/10/24 07:07:46;;;;;;;28.08;13.88;;;;;;;10.52;100.00;102339.25;5092581;28;20374;-58
2021/10/24 07:10:13;;;;;;;27.55;13.63;;;;;;;10.51;100.00;102334.91;5092932;28;20024;-58
2021/10/24 07:12:39;;;;;;;30.55;14.85;;;;;;;10.48;100.00;102344.06;5093250;28;20036;-59
2021/10/24 07:15:07;;;;;;;24.27;12.13;;;;;;;10.39;100.00;102339.66;5092189;28;20051;-58
2021/10/24 07:17:35;;;;;;;23.27;12.82;;;;;;;10.32;100.00;102339.44;5092302;28;20034;-55
2021/10/24 07:20:01;;;;;;;22.30;12.80;;;;;;;10.56;100.00;102348.66;5092571;28;20047;-57
2021/10/24 07:22:31;;;;;;;22.08;11.68;;;;;;;10.39;100.00;102343.19;5076678;28;20086;-58
2021/10/24 07:25:19;;;;;;;22.67;11.85;;;;;;;10.90;100.00;102334.44;5092101;28;20048;-57
2021/10/24 07:27:45;;;;;;;27.48;12.70;;;;;;;10.76;100.00;102333.22;5075809;28;20365;-58
2021/10/24 07:30:12;;;;;;;22.20;12.05;;;;;;;10.58;100.00;102335.94;5092650;28;20051;-58
2021/10/24 07:32:46;;;;;;;20.80;11.40;;;;;;;10.74;100.00;102340.56;5076403;28;20088;-59
2021/10/24 07:35:30;;;;;;;19.85;11.23;;;;;;;10.75;100.00;102337.72;5092642;28;20466;-57
2021/10/24 07:37:55;;;;;;;23.80;12.40;;;;;;;10.95;100.00;102337.47;5093753;28;20028;-59
2021/10/24 07:40:28;;;;;;;26.42;12.57;;;;;;;10.92;100.00;102343.16;5093180;28;20357;-63
2021/10/24 07:42:54;;;;;;;19.73;11.15;;;;;;;10.95;100.00;102340.16;5092142;28;20040;-56
2021/10/24 07:45:20;;;;;;;21.25;11.90;;;;;;;11.05;100.00;102326.63;5092204;28;20036;-58
2021/10/24 07:47:46;;;;;;;23.35;10.45;;;;;;;11.23;100.00;102339.09;5075302;28;20044;-56
2021/10/24 07:50:12;;;;;;;26.83;11.93;;;;;;;11.58;100.00;102332.63;5075545;28;20129;-60
2021/10/24 07:52:42;;;;;;;18.88;10.38;;;;;;;11.33;100.00;102337.09;5093065;28;20446;-59
2021/10/24 07:55:22;;;;;;;21.48;11.80;;;;;;;11.35;100.00;102334.25;5076975;28;20052;-59
2021/10/24 07:57:48;;;;;;;19.17;10.20;;;;;;;11.62;100.00;102322.41;5091663;28;20122;-59
2021/10/24 08:00:13;;;;;;;25.85;10.95;;;;;;;11.65;100.00;102321.25;5091525;28;20173;-58
2021/10/24 08:02:39;;;;;;;23.27;11.17;;;;;;;11.79;100.00;102323.28;5094870;28;20040;-59
2021/10/24 08:05:08;;;;;;;28.20;11.30;;;;;;;12.16;100.00;102323.78;5063322;28;20729;-57
2021/10/24 08:07:39;;;;;;;19.63;9.82;;;;;;;12.24;100.00;102325.63;5079394;28;20040;-58
2021/10/24 08:10:07;;;;;;;26.23;9.80;;;;;;;12.78;100.00;102316.91;5095432;28;20496;-59
2021/10/24 08:12:34;;;;;;;18.38;9.80;;;;;;;13.15;100.00;102309.22;5061801;28;20118;-59
2021/10/24 08:15:00;;;;;;;17.40;9.15;;;;;;;13.42;100.00;102312.41;5061953;28;20040;-59
2021/10/24 08:17:26;;;;;;;22.02;9.52;;;;;;;13.76;100.00;102309.31;5096533;28;20027;-59
2021/10/24 08:20:12;;;;;;;19.47;10.83;;;;;;;14.08;100.00;102302.97;5095043;28;20036;-59
2021/10/24 08:22:38;;;;;;;;;;;;;;;14.43;100.00;102309.50;5062201;28;20713;-61
2021/10/24 08:25:04;;;;;;;16.43;8.40;;;;;;;15.09;100.00;102305.19;5061318;28;19908;-60
2021/10/24 08:27:32;;;;;;;14.00;7.83;;;;;;;15.31;100.00;102305.22;5079005;28;20040;-62
2021/10/24 08:30:18;;;;;;;15.55;7.20;;;;;;;15.47;100.00;102304.16;5096245;28;20248;-61
2021/10/24 08:32:48;;;;;;;14.20;7.13;;;;;;;16.17;100.00;102314.31;5095547;28;20040;-59
2021/10/24 08:35:14;;;;;;;16.10;7.35;;;;;;;15.95;100.00;102308.94;5095801;28;20268;-55
2021/10/24 08:37:39;;;;;;;11.43;7.05;;;;;;;16.46;98.75;102310.56;5095597;28;20377;-58
2021/10/24 08:40:07;;;;;;;13.82;7.15;;;;;;;17.19;94.28;102308.38;5095219;28;20494;-59
2021/10/24 08:42:38;;;;;;;14.97;6.60;;;;;;;18.00;81.73;102306.59;5094396;28;20145;-59
2021/10/24 08:45:05;;;;;;;13.33;7.20;;;;;;;18.22;79.59;102303.66;5095849;28;20264;-59
2021/10/24 08:47:32;;;;;;;15.03;7.20;;;;;;;18.43;73.09;102305.28;5095580;28;20280;-59
2021/10/24 08:49:57;;;;;;;12.48;6.45;;;;;;;18.41;70.91;102303.84;5094530;28;20284;-60
2021/10/24 08:52:25;;;;;;;13.90;6.07;;;;;;;18.72;71.16;102308.53;5095820;28;20036;-59
2021/10/24 08:54:53;;;;;;;15.23;6.97;;;;;;;19.46;66.36;102302.72;5095403;28;20028;-59
2021/10/24 08:57:37;;;;;;;9.80;6.07;;;;;;;19.43;63.81;102297.75;5094270;28;20277;-59
2021/10/24 09:00:05;;;;;;;13.20;7.00;;;;;;;19.86;61.52;102300.75;5095377;28;20335;-62
2021/10/24 09:03:00;;;;;;;11.90;6.50;;;;;;;20.46;58.00;102300.16;5095186;28;20249;-59
2021/10/24 09:05:39;;;;;;;10.40;6.17;;;;;;;20.93;58.04;102298.78;5094418;28;20034;-60
2021/10/24 09:08:10;;;;;;;11.97;7.33;;;;;;;21.55;53.57;102296.84;5096177;28;20120;-60
2021/10/24 09:10:40;;;;;;;12.47;6.27;;;;;;;21.58;51.62;102294.50;5094321;28;20381;-60
2021/10/24 09:13:08;;;;;;;13.60;6.80;;;;;;;21.55;51.63;102288.69;5095661;28;20032;-60
2021/10/24 09:16:03;;;;;;;9.73;6.40;;;;;;;21.59;51.80;102287.16;5095431;28;20445;-60
2021/10/24 09:18:45;;;;;;;11.27;6.13;;;;;;;21.68;51.18;102287.66;5095864;28;20126;-60
2021/10/24 09:21:17;;;;;;;15.37;6.97;;;;;;;21.88;50.62;102288.13;5094891;28;20089;-59
2021/10/24 09:24:13;;;;;;;14.23;6.23;;;;;;;22.58;48.18;102282.03;5094003;28;20043;-60
2021/10/24 09:26:40;;;;;;;11.80;6.33;;;;;;;22.19;49.64;102279.84;5082176;28;20055;-58
2021/10/24 09:29:07;;;;;;;11.73;6.13;;;;;;;22.51;47.55;102273.16;5095027;28;20016;-60
2021/10/24 09:31:35;;;;;;;13.67;6.70;;;;;;;23.15;46.68;102280.38;5095285;28;20107;-60
2021/10/24 09:34:10;;;;;;;10.77;6.57;;;;;;;23.59;44.88;102271.56;5095386;28;20035;-60
2021/10/24 09:36:53;;;;;;;16.00;6.10;;;;;;;24.76;42.17;102289.03;5095193;28;20035;-60
2021/10/24 09:39:38;;;;;;;11.50;5.87;;;;;;;23.99;42.66;102278.75;5094402;28;20574;-63
2021/10/24 09:42:11;;;;;;;14.45;6.97;;;;;;;23.95;43.45;102269.41;5094547;28;20036;-59
2021/10/24 09:44:36;;;;;;;12.07;7.20;;;;;;;24.58;42.09;102271.88;5095199;28;20127;-60
2021/10/24 09:47:02;;;;;;;9.55;5.80;;;;;;;24.37;42.35;102276.25;5059923;28;20477;-60
2021/10/24 09:49:28;;;;;;;14.93;7.80;;;;;;;24.90;41.98;102270.31;5095071;28;20032;-60
2021/10/24 09:51:54;;;;;;;11.45;7.30;;;;;;;24.82;41.33;102266.16;5093307;28;20479;-60
2021/10/24 09:54:24;;;;;;;12.25;6.07;;;;;;;24.30;41.98;102261.97;5094628;28;20438;-59
2021/10/24 09:56:51;;;;;;;12.67;6.10;;;;;;;24.29;42.07;102257.56;5094433;28;20040;-60
2021/10/24 09:59:21;;;;;;;8.93;5.77;;;;;;;24.85;42.01;102253.84;5060560;28;20111;-60
2021/10/24 10:01:54;;;;;;;9.57;5.67;;;;;;;25.30;39.87;102260.81;5094355;28;20461;-59
2021/10/24 10:04:23;;;;;;;13.70;6.33;;;;;;;25.58;38.78;102255.31;5094402;28;20063;-60
2021/10/24 10:06:50;;;;;;;13.13;6.43;;;;;;;25.20;38.25;102263.50;5093181;28;20020;-60
2021/10/24 10:09:16;;;;;;;11.60;5.97;;;;;;;24.72;39.09;102265.97;5094035;28;20036;-61
2021/10/24 10:11:47;;;;;;;;;;;;;;;24.28;39.21;102251.25;5094642;28;20103;-61
2021/10/24 10:14:19;;;;;;;13.07;5.53;;;;;;;25.45;38.27;102260.13;5094249;28;19961;-61
2021/10/24 10:16:52;;;;;;;12.50;5.70;;;;;;;24.82;38.27;102251.63;5093882;28;20185;-60
2021/10/24 10:19:28;;;;;;;12.83;5.83;;;;;;;24.69;38.75;102261.03;5094776;28;20113;-61
2021/10/24 10:21:54;;;;;;;9.23;5.40;;;;;;;24.97;38.24;102251.78;5094866;28;20028;-61
2021/10/24 10:24:35;;;;;;;14.48;5.63;;;;;;;24.68;38.81;102260.22;5093780;28;20035;-61
2021/10/24 10:27:02;;;;;;;11.30;5.73;;;;;;;24.90;38.44;102262.09;5094053;28;20466;-61
2021/10/24 10:29:51;;;;;;;10.80;5.70;;;;;;;25.47;37.61;102263.44;5094326;28;20311;-61
2021/10/24 10:32:44;;;;;;;13.93;6.20;;;;;;;26.13;36.24;102253.16;5094092;28;20038;-61
2021/10/24 10:35:10;;;;;;;8.70;5.47;;;;;;;26.49;35.33;102258.81;5094076;28;20031;-60
2021/10/24 10:37:53;;;;;;;9.43;5.03;;;;;;;25.66;35.76;102257.56;5092818;28;20024;-61
2021/10/24 10:40:55;;;;;;;15.67;5.57;;;;;;;25.59;35.49;102262.44;5094759;28;20032;-59
2021/10/24 10:43:21;;;;;;;11.70;4.97;;;;;;;25.50;36.11;102253.88;5082232;28;20040;-60
2021/10/24 10:45:51;;;;;;;12.27;5.53;;;;;;;25.62;34.93;102272.88;5092101;28;20139;-60
2021/10/24 10:48:33;;;;;;;11.27;5.63;;;;;;;25.17;35.32;102256.59;5093858;28;20054;-60
2021/10/24 10:51:02;;;;;;;10.03;5.37;;;;;;;25.16;35.50;102249.47;5075517;28;20036;-60
2021/10/24 10:53:30;;;;;;;13.57;4.93;;;;;;;24.67;35.99;102246.78;5092076;28;20059;-60
2021/10/24 10:55:56;;;;;;;13.27;5.93;;;;;;;25.22;35.73;102253.09;5093436;28;20028;-60
2021/10/24 10:58:33;;;;;;;7.18;4.63;;;;;;;25.84;34.90;102236.28;5093549;28;20374;-60
2021/10/24 11:01:00;;;;;;;10.80;5.03;;;;;;;25.34;34.57;102247.44;5092114;28;20050;-59
2021/10/24 11:03:49;;;;;;;7.47;4.90;;;;;;;26.86;33.48;102242.47;5092343;28;20299;-60
2021/10/24 11:06:24;;;;;;;9.07;4.83;;;;;;;26.94;33.14;102239.16;5092803;28;20074;-60
2021/10/24 11:09:19;;;;;;;14.57;5.53;;;;;;;26.51;33.13;102239.34;5093292;28;20063;-60
2021/10/24 11:11:45;;;;;;;10.37;5.80;;;;;;;26.41;33.48;102234.66;5078551;28;20079;-60
2021/10/24 11:14:10;;;;;;;15.80;5.68;;;;;;;26.29;33.16;102226.66;5092897;28;20067;-60
2021/10/24 11:16:37;;;;;;;10.32;5.45;;;;;;;26.47;33.48;102228.09;5093502;28;20480;-60
2021/10/24 11:19:22;;;;;;;13.13;5.10;;;;;;;27.29;32.43;102221.06;5093359;28;20043;-60